createdAt,value
2023-05-09T00:02:02.844Z,94607.84
2023-05-09T00:04:30.143Z,94612.31
2023-05-09T00:06:56.590Z,94607.34
2023-05-09T00:09:22.969Z,94597.97
2023-05-09T00:11:49.586Z,94598.72
2023-05-09T00:14:18.256Z,94594.28
2023-05-09T00:16:45.424Z,94589.06
2023-05-09T00:19:12.968Z,94595.84
2023-05-09T00:21:39.454Z,94595.06
2023-05-09T00:24:06.277Z,94580.72
2023-05-09T00:26:32.738Z,94581.00
2023-05-09T00:28:59.732Z,94580.53
2023-05-09T00:31:26.286Z,94574.38
2023-05-09T00:33:53.992Z,94566.41
2023-05-09T00:36:20.475Z,94573.97
2023-05-09T00:38:47.268Z,94563.91
2023-05-09T00:41:13.736Z,94566.03
2023-05-09T00:43:40.185Z,94560.63
2023-05-09T00:46:06.931Z,94561.38
2023-05-09T00:48:33.503Z,94553.84
2023-05-09T00:51:00.010Z,94555.41
2023-05-09T00:53:26.655Z,94557.41
2023-05-09T00:55:55.656Z,94550.91
2023-05-09T00:58:22.249Z,94553.63
2023-05-09T01:00:48.780Z,94549.00
2023-05-09T01:03:15.737Z,94545.72
2023-05-09T01:06:11.069Z,94550.19
2023-05-09T01:09:02.050Z,94545.03
2023-05-09T01:11:34.446Z,94548.75
2023-05-09T01:14:12.974Z,94543.50
2023-05-09T01:16:43.622Z,94537.19
2023-05-09T01:19:38.314Z,94529.19
2023-05-09T01:22:08.957Z,94535.84
2023-05-09T01:24:50.635Z,94530.25
2023-05-09T01:27:50.716Z,94532.69
2023-05-09T01:30:18.676Z,94522.13
2023-05-09T01:32:49.697Z,94525.63
2023-05-09T01:35:17.300Z,94523.69
2023-05-09T01:37:48.947Z,94516.22
2023-05-09T01:40:17.523Z,94519.94
2023-05-09T01:42:48.524Z,94518.66
2023-05-09T01:45:17.626Z,94517.69
2023-05-09T01:47:44.745Z,94519.03
2023-05-09T01:50:12.618Z,94523.22
2023-05-09T01:52:41.497Z,94520.41
2023-05-09T01:55:09.924Z,94519.44
2023-05-09T01:57:38.400Z,94529.09
2023-05-09T02:00:07.895Z,94512.94
2023-05-09T02:02:40.312Z,94518.25
2023-05-09T02:05:09.873Z,94517.31
2023-05-09T02:07:37.128Z,94512.94
2023-05-09T02:10:04.861Z,94515.84
2023-05-09T02:12:31.457Z,94511.66
2023-05-09T02:14:57.995Z,94509.63
2023-05-09T02:17:24.613Z,94501.63
2023-05-09T02:19:51.063Z,94504.50
2023-05-09T02:22:17.826Z,94512.34
2023-05-09T02:24:45.504Z,94512.34
2023-05-09T02:27:12.892Z,94520.16
2023-05-09T02:29:44.370Z,94512.84
2023-05-09T02:32:16.548Z,94516.97
2023-05-09T02:34:44.752Z,94514.84
2023-05-09T02:37:11.524Z,94518.25
2023-05-09T02:39:38.097Z,94516.97
2023-05-09T02:42:10.377Z,94510.22
2023-05-09T02:44:37.360Z,94506.53
2023-05-09T02:47:06.828Z,94500.53
2023-05-09T02:49:34.067Z,94503.94
2023-05-09T02:52:02.796Z,94500.28
2023-05-09T02:54:29.648Z,94502.41
2023-05-09T02:56:56.326Z,94499.28
2023-05-09T02:59:22.782Z,94493.59
2023-05-09T03:01:49.630Z,94496.00
2023-05-09T03:04:16.555Z,94494.47
2023-05-09T03:06:43.222Z,94497.34
2023-05-09T03:09:10.125Z,94489.31
2023-05-09T03:11:37.136Z,94489.91
2023-05-09T03:14:04.200Z,94493.81
2023-05-09T03:16:31.102Z,94492.28
2023-05-09T03:18:58.201Z,94489.19
2023-05-09T03:21:24.701Z,94499.63
2023-05-09T03:23:51.276Z,94497.50
2023-05-09T03:26:17.835Z,94495.13
2023-05-09T03:28:44.715Z,94494.25
2023-05-09T03:31:11.236Z,94500.44
2023-05-09T03:33:37.689Z,94497.75
2023-05-09T03:36:05.268Z,94490.41
2023-05-09T03:38:31.913Z,94488.47
2023-05-09T03:40:58.768Z,94480.75
2023-05-09T03:43:26.291Z,94490.00
2023-05-09T03:45:52.764Z,94490.78
2023-05-09T03:48:19.219Z,94489.53
2023-05-09T03:50:50.099Z,94481.53
2023-05-09T03:53:16.678Z,94488.38
2023-05-09T03:55:45.529Z,94492.03
2023-05-09T03:58:13.563Z,94489.72
2023-05-09T04:00:42.223Z,94485.75
2023-05-09T04:03:14.537Z,94487.31
2023-05-09T04:05:45.662Z,94478.41
2023-05-09T04:08:20.812Z,94475.81
2023-05-09T04:10:47.506Z,94483.06
2023-05-09T04:13:14.076Z,94481.53
2023-05-09T04:15:41.034Z,94481.22
2023-05-09T04:18:07.731Z,94483.06
2023-05-09T04:20:34.421Z,94472.91
2023-05-09T04:23:01.452Z,94476.88
2023-05-09T04:25:29.398Z,94474.84
2023-05-09T04:27:56.607Z,94465.47
2023-05-09T04:30:23.776Z,94470.69
2023-05-09T04:32:50.567Z,94481.69
2023-05-09T04:35:19.772Z,94473.94
2023-05-09T04:37:48.488Z,94467.72
2023-05-09T04:40:14.989Z,94464.88
2023-05-09T04:42:51.891Z,94466.44
2023-05-09T04:45:21.844Z,94460.19
2023-05-09T04:47:48.361Z,94454.28
2023-05-09T04:50:14.808Z,94456.41
2023-05-09T04:52:41.243Z,94461.44
2023-05-09T04:55:08.242Z,94464.34
2023-05-09T04:57:38.962Z,94463.25
2023-05-09T05:00:11.339Z,94468.47
2023-05-09T05:02:38.204Z,94458.03
2023-05-09T05:05:13.333Z,94462.00
2023-05-09T05:07:42.634Z,94454.56
2023-05-09T05:10:11.312Z,94469.81
2023-05-09T05:12:40.032Z,94474.47
2023-05-09T05:15:09.795Z,94456.22
2023-05-09T05:17:37.305Z,94457.78
2023-05-09T05:20:06.639Z,94460.06
2023-05-09T05:22:33.519Z,94467.34
2023-05-09T05:25:00.042Z,94457.38
2023-05-09T05:27:26.901Z,94471.66
2023-05-09T05:29:53.593Z,94478.03
2023-05-09T05:32:20.616Z,94469.13
2023-05-09T05:34:47.585Z,94475.69
2023-05-09T05:37:14.377Z,94458.31
2023-05-09T05:39:41.757Z,94461.34
2023-05-09T05:42:08.635Z,94462.88
2023-05-09T05:44:35.429Z,94456.13
2023-05-09T05:47:02.011Z,94461.34
2023-05-09T05:49:28.498Z,94461.81
2023-05-09T05:51:54.976Z,94462.97
2023-05-09T05:54:22.196Z,94462.75
2023-05-09T05:56:48.976Z,94458.19
2023-05-09T05:59:16.274Z,94453.47
2023-05-09T06:01:43.328Z,94453.25
2023-05-09T06:04:10.258Z,94456.53
2023-05-09T06:06:37.013Z,94453.81
2023-05-09T06:09:03.473Z,94447.03
2023-05-09T06:11:30.022Z,94447.81
2023-05-09T06:13:56.505Z,94454.50
2023-05-09T06:16:23.686Z,94452.25
2023-05-09T06:18:52.662Z,94448.94
2023-05-09T06:21:21.220Z,94449.97
2023-05-09T06:24:04.258Z,94442.84
2023-05-09T06:26:32.795Z,94441.28
2023-05-09T06:28:59.289Z,94444.53
2023-05-09T06:31:26.188Z,94451.84
2023-05-09T06:33:53.078Z,94451.53
2023-05-09T06:36:19.671Z,94443.66
2023-05-09T06:38:46.273Z,94435.75
2023-05-09T06:41:12.737Z,94429.47
2023-05-09T06:43:39.176Z,94428.22
2023-05-09T06:46:05.773Z,94431.44
2023-05-09T06:48:32.278Z,94434.81
2023-05-09T06:50:58.929Z,94419.00
2023-05-09T06:53:25.394Z,94418.22
2023-05-09T06:55:51.803Z,94409.66
2023-05-09T06:58:18.264Z,94419.50
2023-05-09T07:00:44.781Z,94418.44
2023-05-09T07:03:11.692Z,94410.66
2023-05-09T07:05:38.261Z,94412.06
2023-05-09T07:08:04.704Z,94410.09
2023-05-09T07:10:31.363Z,94411.38
2023-05-09T07:12:58.054Z,94404.97
2023-05-09T07:15:37.184Z,94406.66
2023-05-09T07:18:07.482Z,94365.13
2023-05-09T07:20:33.918Z,94396.50
2023-05-09T07:23:00.529Z,94387.63
2023-05-09T07:25:26.991Z,94386.88
2023-05-09T07:27:53.460Z,94375.34
2023-05-09T07:30:19.968Z,94374.75
2023-05-09T07:32:46.650Z,94377.56
2023-05-09T07:35:13.356Z,94371.75
2023-05-09T07:37:40.620Z,94373.75
2023-05-09T07:40:07.718Z,94366.06
2023-05-09T07:42:34.245Z,94362.03
2023-05-09T07:45:00.785Z,94361.72
2023-05-09T07:47:27.297Z,94361.41
2023-05-09T07:49:53.752Z,94360.63
2023-05-09T07:52:20.167Z,94363.53
2023-05-09T07:54:46.615Z,94372.19
2023-05-09T07:57:13.090Z,94365.97
2023-05-09T07:59:39.524Z,94350.22
2023-05-09T08:02:06.445Z,94342.22
2023-05-09T08:04:33.008Z,94345.44
2023-05-09T08:06:59.628Z,94339.72
2023-05-09T08:09:26.569Z,94338.59
2023-05-09T08:11:53.050Z,94335.53
2023-05-09T08:14:19.496Z,94339.53
2023-05-09T08:16:45.962Z,94335.63
2023-05-09T08:19:12.412Z,94326.84
2023-05-09T08:21:38.837Z,94332.97
2023-05-09T08:24:07.892Z,94322.94
2023-05-09T08:26:35.209Z,94317.16
2023-05-09T08:29:01.983Z,94311.88
2023-05-09T08:31:28.761Z,94314.88
2023-05-09T08:33:55.326Z,94319.03
2023-05-09T08:36:21.762Z,94313.06
2023-05-09T08:38:49.449Z,94309.41
2023-05-09T08:41:16.325Z,94293.44
2023-05-09T08:43:43.640Z,94297.81
2023-05-09T08:46:11.634Z,94293.38
2023-05-09T08:48:38.771Z,94291.66
2023-05-09T08:51:06.890Z,94293.78
2023-05-09T08:53:34.277Z,94294.28
2023-05-09T08:56:03.626Z,94288.94
2023-05-09T08:58:31.428Z,94288.06
2023-05-09T09:00:59.022Z,94292.47
2023-05-09T09:03:26.291Z,94283.69
2023-05-09T09:05:54.774Z,94275.25
2023-05-09T09:08:22.894Z,94268.13
2023-05-09T09:10:49.771Z,94268.69
2023-05-09T09:13:17.860Z,94271.88
2023-05-09T09:15:46.494Z,94272.66
2023-05-09T09:18:18.093Z,94277.94
2023-05-09T09:20:59.733Z,94272.63
2023-05-09T09:23:27.225Z,94264.72
2023-05-09T09:26:03.016Z,94268.84
2023-05-09T09:28:29.673Z,94263.34
2023-05-09T09:30:56.314Z,94268.31
2023-05-09T09:33:24.188Z,94256.41
2023-05-09T09:35:52.226Z,94252.00
2023-05-09T09:38:20.636Z,94251.59
2023-05-09T09:40:57.688Z,94236.72
2023-05-09T09:43:31.326Z,94237.56
2023-05-09T09:46:01.716Z,94227.91
2023-05-09T09:48:33.617Z,94231.09
2023-05-09T09:51:11.205Z,94225.75
2023-05-09T09:53:41.736Z,94224.91
2023-05-09T09:56:08.345Z,94211.56
2023-05-09T09:58:34.989Z,94208.00
2023-05-09T10:01:20.790Z,94207.69
2023-05-09T10:03:47.937Z,94204.88
2023-05-09T10:06:16.449Z,94206.47
2023-05-09T10:08:46.750Z,94195.50
2023-05-09T10:11:13.748Z,94191.50
2023-05-09T10:13:40.521Z,94186.72
2023-05-09T10:16:09.019Z,94173.56
2023-05-09T10:18:36.524Z,94182.13
2023-05-09T10:21:05.527Z,94180.16
2023-05-09T10:23:37.016Z,94176.28
2023-05-09T10:26:28.975Z,94167.72
2023-05-09T10:28:57.384Z,94163.84
2023-05-09T10:31:27.894Z,94169.63
2023-05-09T10:33:58.691Z,94163.69
2023-05-09T10:36:25.363Z,94164.69
2023-05-09T10:38:54.943Z,94158.09
2023-05-09T10:41:22.214Z,94156.75
2023-05-09T10:43:48.821Z,94157.78
2023-05-09T10:46:16.284Z,94150.63
2023-05-09T10:48:43.589Z,94142.91
2023-05-09T10:51:10.649Z,94138.53
2023-05-09T10:53:43.551Z,94148.47
2023-05-09T10:56:22.857Z,94145.56
2023-05-09T10:58:49.296Z,94138.38
2023-05-09T11:01:36.844Z,94129.91
2023-05-09T11:04:10.959Z,94133.22
2023-05-09T11:06:53.998Z,94117.78
2023-05-09T11:09:32.851Z,94123.47
2023-05-09T11:12:05.817Z,94114.16
2023-05-09T11:14:44.709Z,94110.97
2023-05-09T11:17:12.634Z,94110.44
2023-05-09T11:19:47.854Z,94098.41
2023-05-09T11:22:21.236Z,94089.75
2023-05-09T11:24:49.539Z,94088.81
2023-05-09T11:27:16.783Z,94084.16
2023-05-09T11:29:45.652Z,94075.53
2023-05-09T11:32:14.557Z,94079.03
2023-05-09T11:34:44.437Z,94076.31
2023-05-09T11:37:17.514Z,94067.31
2023-05-09T11:39:58.824Z,94067.78
2023-05-09T11:42:29.431Z,94060.38
2023-05-09T11:44:57.643Z,94061.84
2023-05-09T11:47:25.113Z,94056.88
2023-05-09T11:49:52.092Z,94057.28
2023-05-09T11:52:19.937Z,94058.69
2023-05-09T11:54:46.398Z,94052.53
2023-05-09T11:57:17.274Z,94047.38
2023-05-09T11:59:45.358Z,94034.69
2023-05-09T12:02:12.033Z,94031.94
2023-05-09T12:04:38.890Z,94028.69
2023-05-09T12:07:05.681Z,94028.44
2023-05-09T12:09:34.408Z,94017.41
2023-05-09T12:12:01.332Z,94032.78
2023-05-09T12:14:32.402Z,94027.34
2023-05-09T12:16:58.832Z,94021.03
2023-05-09T12:19:26.167Z,94015.19
2023-05-09T12:21:59.124Z,94006.66
2023-05-09T12:24:26.971Z,93999.91
2023-05-09T12:26:57.707Z,93996.75
2023-05-09T12:29:25.292Z,93987.91
2023-05-09T12:31:55.383Z,93979.00
2023-05-09T12:34:22.033Z,93983.31
2023-05-09T12:36:50.853Z,93970.13
2023-05-09T12:39:22.912Z,93982.94
2023-05-09T12:42:00.925Z,93972.25
2023-05-09T12:44:29.725Z,93966.94
2023-05-09T12:47:01.470Z,93957.84
2023-05-09T12:49:29.285Z,93962.06
2023-05-09T12:51:58.094Z,93956.72
2023-05-09T12:54:28.976Z,93948.34
2023-05-09T12:56:56.916Z,93949.16
2023-05-09T12:59:24.796Z,93940.41
2023-05-09T13:02:01.864Z,93934.31
2023-05-09T13:04:28.970Z,93934.34
2023-05-09T13:06:57.692Z,93936.69
2023-05-09T13:09:26.199Z,93929.91
2023-05-09T13:11:53.657Z,93934.88
2023-05-09T13:14:21.819Z,93924.66
2023-05-09T13:16:48.514Z,93930.03
2023-05-09T13:19:15.003Z,93917.41
2023-05-09T13:21:41.447Z,93915.47
2023-05-09T13:24:08.114Z,93917.66
2023-05-09T13:26:34.631Z,93912.00
2023-05-09T13:29:01.123Z,93909.09
2023-05-09T13:31:27.752Z,93905.66
2023-05-09T13:33:54.193Z,93905.16
2023-05-09T13:36:20.999Z,93888.81
2023-05-09T13:38:47.686Z,93885.09
2023-05-09T13:41:19.955Z,93891.25
2023-05-09T13:43:46.771Z,93879.88
2023-05-09T13:46:13.552Z,93881.78
2023-05-09T13:48:40.215Z,93874.59
2023-05-09T13:51:07.836Z,93873.06
2023-05-09T13:53:35.344Z,93877.66
2023-05-09T13:56:03.300Z,93874.19
2023-05-09T13:58:29.745Z,93865.44
2023-05-09T14:00:56.177Z,93863.16
2023-05-09T14:03:22.697Z,93862.81
2023-05-09T14:05:49.431Z,93867.75
2023-05-09T14:08:16.613Z,93857.13
2023-05-09T14:10:44.467Z,93852.16
2023-05-09T14:13:12.433Z,93855.94
2023-05-09T14:15:40.180Z,93841.03
2023-05-09T14:18:06.780Z,93829.59
2023-05-09T14:20:35.869Z,93823.53
2023-05-09T14:23:02.302Z,93830.03
2023-05-09T14:25:29.324Z,93819.34
2023-05-09T14:27:55.754Z,93815.19
2023-05-09T14:30:22.995Z,93819.75
2023-05-09T14:32:49.477Z,93814.84
2023-05-09T14:35:16.181Z,93815.31
2023-05-09T14:37:42.805Z,93811.50
2023-05-09T14:40:09.740Z,93809.97
2023-05-09T14:42:36.990Z,93802.75
2023-05-09T14:45:04.724Z,93798.94
2023-05-09T14:47:31.353Z,93783.38
2023-05-09T14:49:57.906Z,93790.97
2023-05-09T14:52:24.402Z,93784.91
2023-05-09T14:54:50.865Z,93789.09
2023-05-09T14:57:17.345Z,93774.66
2023-05-09T14:59:43.873Z,93767.44
2023-05-09T15:02:10.332Z,93777.25
2023-05-09T15:04:36.808Z,93760.53
2023-05-09T15:07:03.239Z,93760.91
2023-05-09T15:09:29.686Z,93761.66
2023-05-09T15:11:56.402Z,93765.06
2023-05-09T15:14:22.823Z,93762.78
2023-05-09T15:16:51.529Z,93751.38
2023-05-09T15:19:18.218Z,93753.66
2023-05-09T15:21:44.971Z,93751.78
2023-05-09T15:24:12.065Z,93752.16
2023-05-09T15:26:38.506Z,93741.53
2023-05-09T15:29:04.996Z,93739.22
2023-05-09T15:31:32.760Z,93743.81
2023-05-09T15:33:59.792Z,93736.22
2023-05-09T15:36:29.944Z,93734.69
2023-05-09T15:38:56.371Z,93732.38
2023-05-09T15:41:23.167Z,93729.31
2023-05-09T15:43:49.811Z,93735.75
2023-05-09T15:46:16.982Z,93733.03
2023-05-09T15:48:43.549Z,93723.94
2023-05-09T15:51:10.103Z,93716.78
2023-05-09T15:53:36.735Z,93716.84
2023-05-09T15:56:03.720Z,93716.09
2023-05-09T15:58:30.637Z,93708.88
2023-05-09T16:00:57.093Z,93710.03
2023-05-09T16:03:24.813Z,93713.44
2023-05-09T16:05:52.165Z,93713.78
2023-05-09T16:08:18.880Z,93706.53
2023-05-09T16:10:48.900Z,93705.34
2023-05-09T16:13:17.782Z,93707.19
2023-05-09T16:15:45.362Z,93694.22
2023-05-09T16:18:12.133Z,93697.97
2023-05-09T16:20:38.679Z,93692.22
2023-05-09T16:23:05.162Z,93695.50
2023-05-09T16:25:33.355Z,93684.44
2023-05-09T16:28:01.003Z,93687.00
2023-05-09T16:30:27.465Z,93686.13
2023-05-09T16:32:54.020Z,93675.41
2023-05-09T16:35:20.518Z,93675.00
2023-05-09T16:37:47.229Z,93676.75
2023-05-09T16:40:14.928Z,93671.34
2023-05-09T16:42:42.927Z,93668.63
2023-05-09T16:45:09.937Z,93665.53
2023-05-09T16:47:36.824Z,93659.72
2023-05-09T16:50:04.620Z,93652.84
2023-05-09T16:52:31.231Z,93650.88
2023-05-09T16:54:59.293Z,93657.22
2023-05-09T16:57:26.023Z,93644.22
2023-05-09T16:59:53.397Z,93638.84
2023-05-09T17:02:19.939Z,93639.22
2023-05-09T17:04:46.662Z,93636.19
2023-05-09T17:07:14.411Z,93639.97
2023-05-09T17:09:41.097Z,93627.47
2023-05-09T17:12:07.552Z,93628.56
2023-05-09T17:14:34.020Z,93622.09
2023-05-09T17:17:00.585Z,93622.84
2023-05-09T17:19:27.091Z,93620.53
2023-05-09T17:21:55.988Z,93612.56
2023-05-09T17:24:22.453Z,93616.72
2023-05-09T17:26:50.125Z,93615.19
2023-05-09T17:29:16.610Z,93618.53
2023-05-09T17:31:43.066Z,93611.66
2023-05-09T17:34:09.573Z,93607.41
2023-05-09T17:36:36.208Z,93604.31
2023-05-09T17:39:02.658Z,93608.00
2023-05-09T17:41:29.107Z,93599.34
2023-05-09T17:43:57.362Z,93600.84
2023-05-09T17:46:24.585Z,93592.53
2023-05-09T17:48:51.309Z,93587.97
2023-05-09T17:51:17.901Z,93592.13
2023-05-09T17:53:44.322Z,93595.03
2023-05-09T17:56:10.779Z,93584.34
2023-05-09T17:58:37.215Z,93586.63
2023-05-09T18:01:03.753Z,93589.50
2023-05-09T18:03:32.177Z,93588.25
2023-05-09T18:06:00.227Z,93582.78
2023-05-09T18:08:26.758Z,93584.56
2023-05-09T18:10:56.326Z,93590.53
2023-05-09T18:13:23.151Z,93598.72
2023-05-09T18:15:49.798Z,93587.69
2023-05-09T18:18:16.302Z,93591.72
2023-05-09T18:20:42.823Z,93593.13
2023-05-09T18:23:09.313Z,93590.50
2023-05-09T18:25:35.804Z,93598.34
2023-05-09T18:28:02.444Z,93613.38
2023-05-09T18:30:29.029Z,93641.72
2023-05-09T18:33:00.081Z,93649.28
2023-05-09T18:35:26.537Z,93654.25
2023-05-09T18:37:53.382Z,93659.09
2023-05-09T18:40:20.017Z,93666.16
2023-05-09T18:42:46.586Z,93683.03
2023-05-09T18:45:13.243Z,93695.78
2023-05-09T18:47:39.767Z,93682.47
2023-05-09T18:50:07.249Z,93681.25
2023-05-09T18:52:34.376Z,93691.38
2023-05-09T18:55:00.901Z,93702.44
2023-05-09T18:57:28.276Z,93715.06
2023-05-09T18:59:55.017Z,93729.09
2023-05-09T19:02:22.346Z,93718.53
2023-05-09T19:04:50.456Z,93714.63
2023-05-09T19:07:17.205Z,93718.59
2023-05-09T19:09:43.720Z,93731.78
2023-05-09T19:12:10.227Z,93731.78
2023-05-09T19:14:37.876Z,93727.19
2023-05-09T19:17:07.762Z,93728.09
2023-05-09T19:19:34.503Z,93731.47
2023-05-09T19:22:01.724Z,93723.25
2023-05-09T19:24:28.245Z,93732.44
2023-05-09T19:26:54.747Z,93735.50
2023-05-09T19:29:21.207Z,93738.53
2023-05-09T19:31:47.709Z,93741.63
2023-05-09T19:34:14.236Z,93745.34
2023-05-09T19:36:40.755Z,93758.34
2023-05-09T19:39:08.834Z,93753.25
2023-05-09T19:41:35.427Z,93743.41
2023-05-09T19:44:02.165Z,93740.00
2023-05-09T19:46:28.710Z,93745.69
2023-05-09T19:48:55.245Z,93732.91
2023-05-09T19:51:21.752Z,93737.03
2023-05-09T19:53:48.235Z,93735.19
2023-05-09T19:56:14.708Z,93737.50
2023-05-09T19:58:41.375Z,93737.94
2023-05-09T20:01:08.044Z,93735.31
2023-05-09T20:03:38.523Z,93742.94
2023-05-09T20:06:05.758Z,93748.31
2023-05-09T20:08:32.240Z,93748.31
2023-05-09T20:11:00.078Z,93744.91
2023-05-09T20:13:27.434Z,93743.78
2023-05-09T20:15:54.013Z,93741.16
2023-05-09T20:18:20.539Z,93741.50
2023-05-09T20:20:47.001Z,93738.34
2023-05-09T20:23:13.548Z,93731.47
2023-05-09T20:25:40.286Z,93723.72
2023-05-09T20:28:06.824Z,93726.78
2023-05-09T20:30:33.386Z,93727.00
2023-05-09T20:33:01.069Z,93718.59
2023-05-09T20:35:27.865Z,93718.06
2023-05-09T20:37:54.613Z,93726.78
2023-05-09T20:40:21.110Z,93723.28
2023-05-09T20:42:47.560Z,93716.94
2023-05-09T20:45:14.074Z,93716.94
2023-05-09T20:47:40.627Z,93717.72
2023-05-09T20:50:07.736Z,93720.97
2023-05-09T20:52:34.182Z,93723.28
2023-05-09T20:55:01.223Z,93714.31
2023-05-09T20:57:27.781Z,93719.13
2023-05-09T20:59:54.239Z,93714.19
2023-05-09T21:02:20.843Z,93712.69
2023-05-09T21:04:47.311Z,93713.00
2023-05-09T21:07:13.814Z,93710.16
2023-05-09T21:09:41.097Z,93710.16
2023-05-09T21:12:09.273Z,93709.41
2023-05-09T21:14:37.497Z,93697.69
2023-05-09T21:17:04.010Z,93703.69
2023-05-09T21:19:30.587Z,93701.06
2023-05-09T21:21:58.300Z,93705.78
2023-05-09T21:24:24.792Z,93710.16
2023-05-09T21:26:51.320Z,93708.97
2023-05-09T21:29:17.733Z,93704.69
2023-05-09T21:31:44.169Z,93700.22
2023-05-09T21:34:10.764Z,93707.66
2023-05-09T21:36:38.292Z,93703.84
2023-05-09T21:39:08.830Z,93695.53
2023-05-09T21:41:36.304Z,93699.66
2023-05-09T21:44:03.158Z,93695.19
2023-05-09T21:46:33.248Z,93693.34
2023-05-09T21:49:00.753Z,93695.31
2023-05-09T21:51:28.374Z,93687.66
2023-05-09T21:53:54.862Z,93695.97
2023-05-09T21:56:22.852Z,93697.03
2023-05-09T21:58:49.325Z,93691.38
2023-05-09T22:01:19.391Z,93692.44
2023-05-09T22:03:46.026Z,93692.44
2023-05-09T22:06:13.407Z,93681.88
2023-05-09T22:08:39.849Z,93687.19
2023-05-09T22:11:06.242Z,93688.41
2023-05-09T22:13:32.840Z,93686.13
2023-05-09T22:15:59.284Z,93687.66
2023-05-09T22:18:27.088Z,93686.25
2023-05-09T22:20:53.554Z,93684.59
2023-05-09T22:23:19.953Z,93684.94
2023-05-09T22:25:46.403Z,93687.53
2023-05-09T22:28:12.850Z,93687.13
2023-05-09T22:30:39.307Z,93683.38
2023-05-09T22:33:05.818Z,93685.88
2023-05-09T22:35:32.323Z,93684.91
2023-05-09T22:37:58.787Z,93684.06
2023-05-09T22:40:26.348Z,93690.47
2023-05-09T22:42:53.442Z,93693.19
2023-05-09T22:45:20.692Z,93686.97
2023-05-09T22:47:47.353Z,93686.84
2023-05-09T22:50:13.974Z,93684.13
2023-05-09T22:52:40.638Z,93675.81
2023-05-09T22:55:07.461Z,93681.69
2023-05-09T22:57:33.935Z,93690.31
2023-05-09T23:00:00.315Z,93682.78
2023-05-09T23:02:26.980Z,93689.13
2023-05-09T23:04:53.531Z,93684.97
2023-05-09T23:07:20.087Z,93678.84
2023-05-09T23:09:46.608Z,93683.00
2023-05-09T23:12:13.152Z,93680.38
2023-05-09T23:14:39.750Z,93679.63
2023-05-09T23:17:06.239Z,93663.78
2023-05-09T23:19:33.191Z,93674.38
2023-05-09T23:21:59.683Z,93675.56
2023-05-09T23:24:26.155Z,93676.34
2023-05-09T23:26:53.664Z,93672.19
2023-05-09T23:29:20.109Z,93670.34
2023-05-09T23:31:46.972Z,93676.13
2023-05-09T23:34:13.760Z,93661.97
2023-05-09T23:36:40.166Z,93657.16
2023-05-09T23:39:06.633Z,93656.81
2023-05-09T23:41:33.267Z,93656.81
2023-05-09T23:44:01.909Z,93655.38
2023-05-09T23:46:28.768Z,93656.94
2023-05-09T23:48:56.218Z,93654.53
2023-05-09T23:51:22.756Z,93654.84
2023-05-09T23:53:49.364Z,93648.28
2023-05-09T23:56:16.063Z,93651.09
2023-05-09T23:58:43.102Z,93645.88
